Time;durP1;ratioP1;P1;durP2;ratioP2;P2;SDS_P1;SDS_P2;PMS_P1;PMS_P2;Temp;Humidity;BMP_temperature;BMP_pressure;BME280_temperature;BME280_humidity;BME280_pressure;Samples;Min_cycle;Max_cycle;Signal;HPM_P1;HPM_P2
2022/06/01 00:00:45;;;;;;;2.87;2.77;;;10.40;99.90;;;;;;5056671;28;20217;-59
2022/06/01 00:03:15;;;;;;;4.77;2.80;;;10.40;99.90;;;;;;5053656;28;20223;-58
2022/06/01 00:05:43;;;;;;;4.37;3.00;;;10.40;99.90;;;;;;5053676;28;20199;-59
2022/06/01 00:08:12;;;;;;;5.33;3.00;;;10.30;99.90;;;;;;5054401;28;20222;-58
2022/06/01 00:10:43;;;;;;;3.20;2.90;;;10.20;99.90;;;;;;5052557;28;20196;-59
2022/06/01 00:13:11;;;;;;;3.80;3.00;;;10.20;99.90;;;;;;5055345;28;20274;-58
2022/06/01 00:15:40;;;;;;;3.13;2.90;;;10.20;99.90;;;;;;5050349;28;20193;-58
2022/06/01 00:18:09;;;;;;;3.03;2.80;;;10.20;99.90;;;;;;5051629;28;20242;-59
2022/06/01 00:20:38;;;;;;;3.87;2.93;;;10.10;99.90;;;;;;5050942;28;20193;-58
2022/06/01 00:23:07;;;;;;;3.80;2.80;;;10.10;99.90;;;;;;5050100;28;20283;-58
2022/06/01 00:25:36;;;;;;;3.13;2.87;;;10.10;99.90;;;;;;5052592;28;20196;-59
2022/06/01 00:28:06;;;;;;;2.93;2.60;;;10.10;99.90;;;;;;5053486;28;20197;-58
2022/06/01 00:30:35;;;;;;;3.17;2.90;;;10.10;99.90;;;;;;5081872;28;20276;-59
2022/06/01 00:33:04;;;;;;;3.37;2.80;;;10.00;99.90;;;;;;5054337;28;20196;-58
2022/06/01 00:35:33;;;;;;;4.00;2.90;;;10.00;99.90;;;;;;5050479;28;20247;-59
2022/06/01 00:38:01;;;;;;;3.10;2.90;;;10.00;99.90;;;;;;5046644;28;20219;-58
2022/06/01 00:40:30;;;;;;;5.50;3.00;;;10.00;99.90;;;;;;5051987;28;20199;-58
2022/06/01 00:43:01;;;;;;;3.40;3.20;;;10.00;99.90;;;;;;5054174;28;20215;-59
2022/06/01 00:45:32;;;;;;;3.23;3.00;;;9.90;99.90;;;;;;5050485;28;22286;-58
2022/06/01 00:48:01;;;;;;;6.83;3.07;;;9.90;99.90;;;;;;5046263;28;20275;-59
2022/06/01 00:50:36;;;;;;;3.27;3.00;;;9.90;99.90;;;;;;5047750;28;20227;-58
2022/06/01 00:53:10;;;;;;;2.90;2.70;;;9.80;99.90;;;;;;5053726;28;20667;-58
2022/06/01 00:55:43;;;;;;;3.50;2.90;;;9.80;99.90;;;;;;5047423;28;20204;-58
2022/06/01 00:58:15;;;;;;;3.23;2.70;;;9.80;99.90;;;;;;5083308;28;20205;-58
2022/06/01 01:00:46;;;;;;;4.00;2.90;;;9.70;99.90;;;;;;5044638;28;20721;-59
2022/06/01 01:03:16;;;;;;;5.53;2.83;;;9.70;99.90;;;;;;5053465;28;20213;-58
2022/06/01 01:05:47;;;;;;;5.10;3.10;;;9.70;99.90;;;;;;5066245;28;20205;-59
2022/06/01 01:08:16;;;;;;;7.63;3.80;;;9.60;99.90;;;;;;5050255;28;20276;-59
2022/06/01 01:10:44;;;;;;;3.40;3.10;;;9.60;99.90;;;;;;5053422;28;20201;-59
2022/06/01 01:13:15;;;;;;;6.13;2.80;;;9.60;99.90;;;;;;5047238;28;20231;-59
2022/06/01 01:15:51;;;;;;;3.50;3.20;;;9.60;99.90;;;;;;5047557;28;20200;-58
2022/06/01 01:18:23;;;;;;;4.60;3.47;;;9.60;99.90;;;;;;5047718;28;20587;-59
2022/06/01 01:21:02;;;;;;;5.30;3.10;;;9.60;99.90;;;;;;5050271;28;20207;-59
2022/06/01 01:23:40;;;;;;;6.43;3.43;;;9.60;99.90;;;;;;5051363;28;20240;-58
2022/06/01 01:26:10;;;;;;;4.57;3.10;;;9.50;99.90;;;;;;5050865;28;20200;-58
2022/06/01 01:28:38;;;;;;;3.70;3.10;;;9.50;99.90;;;;;;5050024;28;20283;-58
2022/06/01 01:31:08;;;;;;;3.43;3.17;;;9.50;99.90;;;;;;5048412;28;20529;-58
2022/06/01 01:33:39;;;;;;;3.80;3.10;;;9.40;99.90;;;;;;5048000;28;20549;-59
2022/06/01 01:36:10;;;;;;;5.83;3.20;;;9.40;99.90;;;;;;5049249;28;20596;-59
2022/06/01 01:38:49;;;;;;;4.33;3.17;;;9.50;99.90;;;;;;5048274;28;20275;-59
2022/06/01 01:41:26;;;;;;;3.27;2.97;;;9.40;99.90;;;;;;5081555;28;20227;-59
2022/06/01 01:44:00;;;;;;;3.40;3.10;;;9.40;99.90;;;;;;5044429;28;20198;-58
2022/06/01 01:46:30;;;;;;;7.67;3.40;;;9.40;99.90;;;;;;5050237;28;20570;-59
2022/06/01 01:49:01;;;;;;;4.57;3.40;;;9.40;99.90;;;;;;5045276;28;20272;-59
2022/06/01 01:51:31;;;;;;;6.63;3.60;;;9.30;99.90;;;;;;5049275;28;21203;-59
2022/06/01 01:54:02;;;;;;;3.50;3.20;;;9.30;99.90;;;;;;5032181;28;20192;-59
2022/06/01 01:56:54;;;;;;;7.20;3.30;;;9.30;99.90;;;;;;5048338;28;20272;-58
2022/06/01 01:59:37;;;;;;;3.80;3.50;;;9.30;99.90;;;;;;5050454;28;20211;-59
2022/06/01 02:02:21;;;;;;;5.57;3.50;;;9.30;99.90;;;;;;5049693;28;20209;-59
2022/06/01 02:07:50;;;;;;;3.63;3.33;;;9.30;99.90;;;;;;5045359;28;20471;-59
2022/06/01 02:13:06;;;;;;;5.77;3.77;;;9.20;99.90;;;;;;5047544;28;20196;-59
2022/06/01 02:15:39;;;;;;;9.73;3.53;;;9.20;99.90;;;;;;5042750;28;20200;-59
2022/06/01 02:18:12;;;;;;;3.93;3.40;;;9.10;99.90;;;;;;5051046;28;20268;-59
2022/06/01 02:20:45;;;;;;;3.93;3.67;;;9.20;99.90;;;;;;5048268;28;20207;-59
2022/06/01 02:23:16;;;;;;;4.10;3.70;;;9.20;99.90;;;;;;5051465;28;20579;-59
2022/06/01 02:25:48;;;;;;;5.43;3.30;;;9.10;99.90;;;;;;5058676;28;20246;-59
2022/06/01 02:28:19;;;;;;;4.63;4.13;;;9.10;99.90;;;;;;5049408;28;20189;-59
2022/06/01 02:30:48;;;;;;;5.80;3.00;;;9.10;99.90;;;;;;5041436;28;20621;-59
2022/06/01 02:33:20;;;;;;;4.40;3.40;;;9.10;99.90;;;;;;5050202;28;20193;-58
2022/06/01 02:35:52;;;;;;;5.10;3.47;;;9.10;99.90;;;;;;5048724;28;20232;-59
2022/06/01 02:38:25;;;;;;;5.07;3.53;;;9.10;99.90;;;;;;5047365;28;20196;-59
2022/06/01 02:40:54;;;;;;;3.90;3.30;;;9.00;99.90;;;;;;5048061;28;21047;-59
2022/06/01 02:43:23;;;;;;;3.47;3.23;;;9.00;99.90;;;;;;5046918;28;20219;-59
2022/06/01 02:45:51;;;;;;;3.67;3.40;;;9.00;99.90;;;;;;5047416;28;20201;-59
2022/06/01 02:48:20;;;;;;;3.77;3.50;;;9.00;99.90;;;;;;5048630;28;20597;-58
2022/06/01 02:50:49;;;;;;;4.20;3.80;;;9.00;99.90;;;;;;5045837;28;20189;-59
2022/06/01 02:53:17;;;;;;;7.20;3.63;;;9.00;99.90;;;;;;5051457;28;20215;-58
2022/06/01 02:55:45;;;;;;;4.80;3.60;;;9.00;99.90;;;;;;5042439;28;20288;-59
2022/06/01 02:58:13;;;;;;;7.73;3.60;;;8.90;99.90;;;;;;5047125;28;20706;-59
2022/06/01 03:00:43;;;;;;;5.70;3.97;;;8.90;99.90;;;;;;5047693;28;20201;-58
2022/06/01 03:03:13;;;;;;;8.00;4.13;;;8.90;99.90;;;;;;5048890;28;20252;-59
2022/06/01 03:05:41;;;;;;;4.67;4.20;;;8.80;99.90;;;;;;5047754;28;20248;-59
2022/06/01 03:08:10;;;;;;;8.27;4.37;;;8.80;99.90;;;;;;5046211;28;20199;-59
2022/06/01 03:10:39;;;;;;;5.13;3.60;;;8.80;99.90;;;;;;5051377;28;20201;-59
2022/06/01 03:13:20;;;;;;;4.23;3.90;;;8.80;99.90;;;;;;5046854;28;20192;-58
2022/06/01 03:15:52;;;;;;;6.57;4.20;;;8.70;99.90;;;;;;5050214;28;20204;-59
2022/06/01 03:18:20;;;;;;;9.60;4.50;;;8.80;99.90;;;;;;5050731;28;20188;-59
2022/06/01 03:20:48;;;;;;;6.70;4.30;;;8.80;99.90;;;;;;5047383;28;20287;-59
2022/06/01 03:23:19;;;;;;;4.70;4.40;;;8.80;99.90;;;;;;5051813;28;20698;-59
2022/06/01 03:25:47;;;;;;;7.00;4.90;;;8.70;99.90;;;;;;5046610;28;20224;-59
2022/06/01 03:28:15;;;;;;;10.93;4.87;;;8.70;99.90;;;;;;5074752;28;20650;-59
2022/06/01 03:30:45;;;;;;;5.70;4.50;;;8.70;99.90;;;;;;5047335;28;20532;-59
2022/06/01 03:33:14;;;;;;;5.90;4.70;;;8.60;99.90;;;;;;5044356;28;20656;-59
2022/06/01 03:35:43;;;;;;;5.07;4.57;;;8.70;99.90;;;;;;5046511;28;20235;-59
2022/06/01 03:38:14;;;;;;;6.10;4.30;;;8.70;99.90;;;;;;5044055;28;20195;-59
2022/06/01 03:40:42;;;;;;;7.13;4.63;;;8.60;99.90;;;;;;5047944;28;20197;-59
2022/06/01 03:43:12;;;;;;;4.80;4.40;;;8.60;99.90;;;;;;5049371;28;20221;-60
2022/06/01 03:45:56;;;;;;;8.97;4.47;;;8.60;99.90;;;;;;5046681;28;20193;-59
2022/06/01 03:48:31;;;;;;;6.53;5.07;;;8.60;99.90;;;;;;5050012;28;20280;-59
2022/06/01 03:51:00;;;;;;;7.77;5.20;;;8.60;99.90;;;;;;5039980;28;20235;-59
2022/06/01 03:53:29;;;;;;;6.83;4.50;;;8.60;99.90;;;;;;5048253;28;20276;-59
2022/06/01 03:55:57;;;;;;;6.53;5.10;;;8.60;99.90;;;;;;5044753;28;20269;-59
2022/06/01 03:58:26;;;;;;;7.00;4.80;;;8.60;99.90;;;;;;5041865;28;20209;-58
2022/06/01 04:00:55;;;;;;;8.40;4.87;;;8.70;99.90;;;;;;5051692;28;20196;-59
2022/06/01 04:04:02;;;;;;;9.00;5.90;;;8.60;99.90;;;;;;5052126;28;20212;-58
2022/06/01 04:07:09;;;;;;;12.63;5.73;;;8.70;99.90;;;;;;5051919;28;20683;-59
2022/06/01 04:09:37;;;;;;;9.43;5.80;;;8.70;99.90;;;;;;5051695;28;20192;-58
2022/06/01 04:12:06;;;;;;;10.17;5.97;;;8.70;99.90;;;;;;5051032;28;20207;-59
2022/06/01 04:14:35;;;;;;;8.50;5.70;;;8.70;99.90;;;;;;5049086;28;20225;-59
2022/06/01 04:17:03;;;;;;;11.30;5.80;;;8.70;99.90;;;;;;5047560;28;20297;-59
2022/06/01 04:19:33;;;;;;;6.90;5.97;;;8.80;99.90;;;;;;5051955;28;20279;-59
2022/06/01 04:22:01;;;;;;;10.47;6.00;;;8.80;99.90;;;;;;5050796;28;20197;-59
2022/06/01 04:24:34;;;;;;;16.03;6.13;;;8.80;99.90;;;;;;5044891;28;20209;-59
2022/06/01 04:27:04;;;;;;;9.37;5.70;;;8.80;99.90;;;;;;5045002;28;20299;-59
2022/06/01 04:29:32;;;;;;;12.23;5.87;;;8.90;99.90;;;;;;5048113;28;20644;-59
2022/06/01 04:32:06;;;;;;;10.47;6.47;;;8.90;99.90;;;;;;5051824;28;20188;-58
2022/06/01 04:34:37;;;;;;;8.50;6.23;;;9.00;99.90;;;;;;5043973;28;20189;-58
2022/06/01 04:37:06;;;;;;;11.17;6.10;;;9.00;99.90;;;;;;5048342;28;20322;-58
2022/06/01 04:39:35;;;;;;;6.63;5.63;;;9.10;99.90;;;;;;5049804;28;20670;-59
2022/06/01 04:42:04;;;;;;;7.70;5.77;;;9.20;99.90;;;;;;5043195;28;20659;-59
2022/06/01 04:44:32;;;;;;;9.50;6.90;;;9.30;99.90;;;;;;5052719;28;20576;-58
2022/06/01 04:47:00;;;;;;;8.90;5.70;;;9.30;99.90;;;;;;5044189;28;20221;-59
2022/06/01 04:49:28;;;;;;;9.47;5.90;;;9.40;99.90;;;;;;5047892;28;20193;-58
2022/06/01 04:51:58;;;;;;;11.17;6.40;;;9.50;99.90;;;;;;5042853;28;20240;-59
2022/06/01 04:54:26;;;;;;;9.40;6.30;;;9.60;99.90;;;;;;5050458;28;20273;-59
2022/06/01 04:56:55;;;;;;;10.77;6.73;;;9.70;99.90;;;;;;5047385;28;20573;-58
2022/06/01 04:59:23;;;;;;;9.10;5.67;;;9.90;99.90;;;;;;5051333;28;20203;-59
2022/06/01 05:01:51;;;;;;;16.57;5.90;;;10.00;99.90;;;;;;5052026;28;20200;-58
2022/06/01 05:04:20;;;;;;;12.77;6.20;;;10.10;99.90;;;;;;5048059;28;20234;-59
2022/06/01 05:06:48;;;;;;;11.30;6.23;;;10.30;99.90;;;;;;5051554;28;20204;-59
2022/06/01 05:09:18;;;;;;;10.73;6.07;;;10.40;99.90;;;;;;5047208;28;20231;-59
2022/06/01 05:11:46;;;;;;;8.50;5.67;;;10.60;99.90;;;;;;5049712;28;20227;-59
2022/06/01 05:14:14;;;;;;;11.00;5.90;;;10.70;99.90;;;;;;5046049;28;20223;-59
2022/06/01 05:16:43;;;;;;;12.17;5.77;;;10.80;99.90;;;;;;5045228;28;20201;-59
2022/06/01 05:19:11;;;;;;;11.83;6.20;;;10.90;99.90;;;;;;5051953;28;20287;-59
2022/06/01 05:21:39;;;;;;;9.73;6.07;;;10.90;99.90;;;;;;5052406;28;20204;-58
2022/06/01 05:24:09;;;;;;;11.07;6.13;;;10.90;99.90;;;;;;5087627;28;20294;-59
2022/06/01 05:26:38;;;;;;;8.33;5.43;;;10.90;99.90;;;;;;5049905;28;20197;-58
2022/06/01 05:29:06;;;;;;;11.83;5.57;;;10.90;99.90;;;;;;5049968;28;20201;-59
2022/06/01 05:31:34;;;;;;;10.00;6.17;;;11.00;99.90;;;;;;5049903;28;20197;-59
2022/06/01 05:34:03;;;;;;;16.07;6.57;;;10.90;99.90;;;;;;5055481;28;20668;-59
2022/06/01 05:36:31;;;;;;;14.80;6.03;;;10.90;99.90;;;;;;5048623;28;20236;-59
2022/06/01 05:39:00;;;;;;;11.17;6.33;;;10.90;99.90;;;;;;5048125;28;20201;-58
2022/06/01 05:41:28;;;;;;;9.17;6.00;;;11.00;99.90;;;;;;5046344;28;20215;-59
2022/06/01 05:43:59;;;;;;;10.40;5.53;;;11.00;99.90;;;;;;5046783;28;20270;-58
2022/06/01 05:46:27;;;;;;;9.20;5.43;;;11.00;99.90;;;;;;5083550;28;20196;-59
2022/06/01 05:48:56;;;;;;;7.27;6.20;;;11.00;99.90;;;;;;5051946;28;20201;-59
2022/06/01 05:51:24;;;;;;;11.70;6.30;;;11.10;99.90;;;;;;5050129;28;20276;-59
2022/06/01 05:53:53;;;;;;;11.33;6.40;;;11.10;99.90;;;;;;5051293;28;20201;-59
2022/06/01 05:56:21;;;;;;;9.77;5.97;;;11.10;99.90;;;;;;5046517;28;20232;-59
2022/06/01 05:58:50;;;;;;;9.90;6.10;;;11.20;99.90;;;;;;5045352;28;20289;-59
2022/06/01 06:01:22;;;;;;;14.13;6.33;;;11.30;99.90;;;;;;5044375;28;20193;-59
2022/06/01 06:03:50;;;;;;;20.27;8.40;;;11.40;99.90;;;;;;5049465;28;20577;-59
2022/06/01 06:06:20;;;;;;;12.73;5.90;;;11.60;99.90;;;;;;5041944;28;20205;-58
2022/06/01 06:08:51;;;;;;;12.03;6.40;;;11.80;99.90;;;;;;5051634;28;20645;-59
2022/06/01 06:11:25;;;;;;;12.10;7.37;;;11.90;99.90;;;;;;5051074;28;20271;-59
2022/06/01 06:13:54;;;;;;;10.20;6.17;;;12.10;99.90;;;;;;5048137;28;20332;-58
2022/06/01 06:16:25;;;;;;;10.03;6.00;;;12.20;99.90;;;;;;5045892;28;20211;-58
2022/06/01 06:18:56;;;;;;;12.00;6.00;;;12.30;99.90;;;;;;5041880;28;20584;-58
2022/06/01 06:21:25;;;;;;;6.80;6.20;;;12.40;99.90;;;;;;5051448;28;20204;-58
2022/06/01 06:23:54;;;;;;;10.37;6.10;;;12.30;99.90;;;;;;5056496;28;20284;-58
2022/06/01 06:26:22;;;;;;;12.47;6.63;;;12.60;99.90;;;;;;5053178;28;20286;-58
2022/06/01 06:28:50;;;;;;;14.40;6.33;;;12.70;99.90;;;;;;5051859;28;20192;-58
2022/06/01 06:31:19;;;;;;;13.13;6.80;;;12.80;99.90;;;;;;5051776;28;20556;-59
2022/06/01 06:33:51;;;;;;;10.50;5.87;;;12.80;99.90;;;;;;5053881;28;20192;-60
2022/06/01 06:36:19;;;;;;;12.47;6.43;;;13.00;99.90;;;;;;5052926;28;20220;-59
2022/06/01 06:38:48;;;;;;;9.53;6.40;;;13.10;99.90;;;;;;5049153;28;20287;-60
2022/06/01 06:41:16;;;;;;;17.30;6.60;;;13.30;99.90;;;;;;5045811;28;20673;-59
2022/06/01 06:43:44;;;;;;;11.53;5.97;;;13.30;99.90;;;;;;5049969;28;20217;-59
2022/06/01 06:46:15;;;;;;;6.77;6.07;;;13.50;99.90;;;;;;5049123;28;20220;-58
2022/06/01 06:48:44;;;;;;;14.57;5.87;;;13.70;99.90;;;;;;5050174;28;20189;-58
2022/06/01 06:51:14;;;;;;;15.50;6.47;;;13.70;99.90;;;;;;5048794;28;20564;-59
2022/06/01 06:53:43;;;;;;;10.67;6.37;;;14.00;99.90;;;;;;5051423;28;20227;-59
2022/06/01 06:56:12;;;;;;;13.90;6.63;;;14.10;99.90;;;;;;5049437;28;20192;-59
2022/06/01 06:58:41;;;;;;;19.70;5.87;;;14.20;99.90;;;;;;5051345;28;20685;-59
2022/06/01 07:01:09;;;;;;;10.73;6.57;;;14.30;99.90;;;;;;5049521;28;20201;-58
2022/06/01 07:03:37;;;;;;;9.83;5.60;;;14.30;99.90;;;;;;5050559;28;20203;-58
2022/06/01 07:06:12;;;;;;;7.70;5.70;;;14.30;99.90;;;;;;5050075;28;20688;-59
2022/06/01 07:08:45;;;;;;;8.00;5.80;;;14.30;99.90;;;;;;5050976;28;20653;-59
2022/06/01 07:11:16;;;;;;;11.70;5.87;;;14.50;99.90;;;;;;5077887;28;20199;-58
2022/06/01 07:13:45;;;;;;;9.00;5.87;;;14.60;99.90;;;;;;5050690;28;20683;-59
2022/06/01 07:16:16;;;;;;;11.10;5.73;;;14.70;99.90;;;;;;5055513;28;20289;-59
2022/06/01 07:18:47;;;;;;;13.47;6.40;;;14.60;99.90;;;;;;5049946;28;20213;-59
2022/06/01 07:21:16;;;;;;;10.43;6.10;;;14.80;99.90;;;;;;5078553;28;20663;-58
2022/06/01 07:23:47;;;;;;;11.73;6.13;;;14.80;99.90;;;;;;5053959;28;20208;-59
2022/06/01 07:26:17;;;;;;;9.67;6.07;;;14.80;99.90;;;;;;5045914;28;20241;-59
2022/06/01 07:28:45;;;;;;;6.97;5.60;;;14.90;99.90;;;;;;5047814;28;20205;-59
2022/06/01 07:31:14;;;;;;;7.60;6.13;;;15.10;99.90;;;;;;5044650;28;20307;-59
2022/06/01 07:33:43;;;;;;;12.63;5.60;;;15.50;99.90;;;;;;5051834;28;20201;-60
2022/06/01 07:36:13;;;;;;;5.73;5.20;;;15.70;99.90;;;;;;5052711;28;20271;-59
2022/06/01 07:44:30;;;;;;;6.07;5.50;;;15.50;99.90;;;;;;5052176;28;20197;-59
2022/06/01 07:47:00;;;;;;;8.70;4.90;;;15.80;99.90;;;;;;5053989;28;20228;-59
2022/06/01 07:49:48;;;;;;;7.97;4.67;;;16.10;99.90;;;;;;5045187;28;20286;-60
2022/06/01 07:52:36;;;;;;;5.23;4.73;;;16.10;99.90;;;;;;5054783;28;20672;-59
2022/06/01 07:55:06;;;;;;;5.90;4.37;;;16.40;99.90;;;;;;5052057;28;20196;-59
2022/06/01 07:57:36;;;;;;;7.40;4.43;;;16.60;99.90;;;;;;5047516;28;20223;-59
2022/06/01 08:00:06;;;;;;;6.97;5.10;;;16.70;99.90;;;;;;5086496;28;20290;-59
2022/06/01 08:02:34;;;;;;;8.67;6.10;;;16.40;99.90;;;;;;5055498;28;20217;-59
2022/06/01 08:05:02;;;;;;;6.03;5.50;;;16.20;99.90;;;;;;5053090;28;20197;-59
2022/06/01 08:07:30;;;;;;;7.80;5.30;;;16.40;99.90;;;;;;5052523;28;20188;-60
2022/06/01 08:09:58;;;;;;;5.93;5.30;;;17.00;99.90;;;;;;5077660;28;20233;-59
2022/06/01 08:15:14;;;;;;;4.60;2.83;;;17.70;99.90;;;;;;5056992;28;20831;-59
2022/06/01 08:17:48;;;;;;;3.60;3.30;;;17.40;99.90;;;;;;5051844;28;20205;-59
2022/06/01 08:20:17;;;;;;;3.10;2.87;;;17.10;99.90;;;;;;5052710;28;20287;-59
2022/06/01 08:22:46;;;;;;;7.10;3.83;;;16.80;99.90;;;;;;5053757;28;20192;-59
2022/06/01 08:25:17;;;;;;;5.20;4.53;;;16.70;99.90;;;;;;5051832;28;20193;-58
2022/06/01 08:27:46;;;;;;;4.60;4.20;;;16.60;99.90;;;;;;5052714;28;20203;-59
2022/06/01 08:30:17;;;;;;;6.63;4.43;;;16.60;99.90;;;;;;5050211;28;20192;-58
2022/06/01 08:32:46;;;;;;;6.63;4.07;;;16.60;99.90;;;;;;5086037;28;20199;-59
2022/06/01 08:35:18;;;;;;;5.30;3.77;;;16.60;99.90;;;;;;5051443;28;20208;-59
2022/06/01 08:37:48;;;;;;;3.83;3.40;;;16.70;99.90;;;;;;5062224;28;20197;-59
2022/06/01 08:40:19;;;;;;;4.97;3.63;;;17.00;99.90;;;;;;5047343;28;20274;-59
2022/06/01 08:42:53;;;;;;;5.33;3.80;;;17.40;99.90;;;;;;5049833;28;20195;-59
2022/06/01 08:45:24;;;;;;;3.73;3.43;;;17.80;99.90;;;;;;5053762;28;20197;-59
2022/06/01 08:47:52;;;;;;;5.13;3.87;;;17.90;99.90;;;;;;5051220;28;20197;-59
2022/06/01 08:50:25;;;;;;;3.60;3.40;;;18.00;99.90;;;;;;5051956;28;20544;-59
2022/06/01 08:52:57;;;;;;;3.70;3.40;;;18.00;99.90;;;;;;5049406;28;20201;-59
2022/06/01 08:55:31;;;;;;;6.53;3.87;;;17.90;99.90;;;;;;5044041;28;20199;-59
2022/06/01 08:58:05;;;;;;;7.53;3.97;;;17.90;99.90;;;;;;5047110;28;20678;-59
2022/06/01 09:00:39;;;;;;;4.03;3.63;;;17.90;99.90;;;;;;5052920;28;20203;-59
2022/06/01 09:03:15;;;;;;;4.90;3.70;;;17.60;99.90;;;;;;5049580;28;20216;-59
2022/06/01 09:05:48;;;;;;;4.60;3.80;;;17.20;99.90;;;;;;5050752;28;20249;-59
2022/06/01 09:08:29;;;;;;;5.00;3.73;;;17.00;99.90;;;;;;5051354;28;20193;-59
2022/06/01 09:11:03;;;;;;;3.77;3.47;;;17.10;99.90;;;;;;5058972;28;20208;-59
2022/06/01 09:13:43;;;;;;;4.60;3.70;;;17.30;99.90;;;;;;5047769;28;20528;-59
2022/06/01 09:16:17;;;;;;;4.47;3.53;;;17.60;99.90;;;;;;5052221;28;20272;-60
2022/06/01 09:18:49;;;;;;;4.93;3.70;;;18.10;99.90;;;;;;5049318;28;20551;-60
2022/06/01 09:24:09;;;;;;;4.53;4.10;;;18.00;99.90;;;;;;5047757;28;20226;-59
2022/06/01 09:26:50;;;;;;;4.57;4.27;;;17.70;99.90;;;;;;5049958;28;20227;-59
2022/06/01 09:29:21;;;;;;;5.00;4.60;;;17.30;99.90;;;;;;5049502;28;20203;-59
2022/06/01 09:31:57;;;;;;;9.63;4.17;;;17.00;99.90;;;;;;5052680;28;20195;-59
2022/06/01 09:34:39;;;;;;;6.23;4.80;;;16.80;99.90;;;;;;5051593;28;20663;-59
2022/06/01 09:37:11;;;;;;;8.07;4.67;;;16.80;99.90;;;;;;5049700;28;20255;-59
2022/06/01 09:39:50;;;;;;;7.03;4.53;;;16.90;99.90;;;;;;5083140;28;20225;-59
2022/06/01 09:42:25;;;;;;;5.33;4.93;;;17.00;99.90;;;;;;5052797;28;20196;-59
2022/06/01 09:44:57;;;;;;;5.97;4.47;;;17.10;99.90;;;;;;5050211;28;20650;-59
2022/06/01 09:47:36;;;;;;;4.87;4.13;;;16.90;99.90;;;;;;5051170;28;20213;-58
2022/06/01 09:50:20;;;;;;;7.13;4.50;;;16.80;99.90;;;;;;5051123;28;20200;-58
2022/06/01 09:52:49;;;;;;;5.30;4.80;;;16.80;99.90;;;;;;5050328;28;20197;-59
2022/06/01 09:55:20;;;;;;;6.27;4.30;;;17.50;99.90;;;;;;5061613;28;20228;-60
2022/06/01 09:58:01;;;;;;;6.97;4.47;;;18.50;99.90;;;;;;5052848;28;20184;-60
2022/06/01 10:06:25;;;;;;;3.83;3.23;;;19.10;99.90;;;;;;5083530;28;20201;-59
2022/06/01 10:09:03;;;;;;;3.83;3.63;;;18.80;99.90;;;;;;5050082;28;20188;-59
2022/06/01 10:11:35;;;;;;;4.47;4.13;;;18.60;99.90;;;;;;5049327;28;20833;-59
2022/06/01 10:14:09;;;;;;;5.40;4.03;;;18.60;99.90;;;;;;5046476;28;20216;-60
2022/06/01 10:16:57;;;;;;;4.07;3.77;;;19.40;99.90;;;;;;5050572;28;20758;-59
2022/06/01 10:19:31;;;;;;;4.00;3.70;;;20.30;99.90;;;;;;5055000;28;20198;-60
2022/06/01 10:22:03;;;;;;;4.83;3.80;;;20.50;99.90;;;;;;5050013;28;20197;-59
2022/06/01 10:24:35;;;;;;;3.23;2.97;;;20.80;99.90;;;;;;5053516;28;20253;-59
2022/06/01 10:27:06;;;;;;;2.50;2.30;;;21.60;99.90;;;;;;5050299;28;20226;-59
2022/06/01 10:29:38;;;;;;;3.23;2.33;;;21.70;99.90;;;;;;5045887;28;20202;-59
2022/06/01 10:32:10;;;;;;;3.17;2.97;;;21.80;99.90;;;;;;5050463;28;20208;-59
2022/06/01 10:34:47;;;;;;;3.70;3.40;;;22.30;99.90;;;;;;5048174;28;20192;-60
2022/06/01 10:37:25;;;;;;;3.70;3.50;;;22.20;99.90;;;;;;5044502;28;20244;-59
2022/06/01 10:39:58;;;;;;;4.10;3.80;;;22.40;99.90;;;;;;5043868;28;20199;-60
2022/06/01 10:45:17;;;;;;;5.50;3.37;;;22.70;99.90;;;;;;5042616;28;20205;-60
2022/06/01 10:47:58;;;;;;;3.27;3.07;;;22.90;99.90;;;;;;5047424;28;20678;-60
2022/06/01 10:50:33;;;;;;;3.60;3.30;;;23.20;99.90;;;;;;5050069;28;20637;-59
2022/06/01 10:53:09;;;;;;;5.03;3.17;;;23.30;99.90;;;;;;5050255;28;20200;-60
2022/06/01 10:55:43;;;;;;;4.57;4.03;;;22.50;99.90;;;;;;5044249;28;20194;-59
2022/06/01 10:58:21;;;;;;;4.93;3.80;;;21.60;99.90;;;;;;5046696;28;20655;-59
2022/06/01 11:00:55;;;;;;;3.70;3.60;;;20.60;99.90;;;;;;5044129;28;20647;-60
2022/06/01 11:03:41;;;;;;;5.97;3.70;;;20.00;99.90;;;;;;5043715;28;20277;-58
2022/06/01 11:06:26;;;;;;;5.27;4.50;;;19.50;99.90;;;;;;5041334;28;20649;-59
2022/06/01 11:09:05;;;;;;;5.67;4.40;;;18.90;99.90;;;;;;5049912;28;20730;-59
2022/06/01 11:11:42;;;;;;;8.10;4.67;;;18.40;99.90;;;;;;5039031;28;20225;-59
2022/06/01 11:14:27;;;;;;;6.50;4.10;;;18.20;99.90;;;;;;5045727;28;21530;-59
2022/06/01 11:16:58;;;;;;;3.67;3.10;;;17.80;99.90;;;;;;5049853;28;20648;-59
2022/06/01 11:19:41;;;;;;;3.97;3.67;;;17.60;99.90;;;;;;5049367;28;20533;-59
2022/06/01 11:22:25;;;;;;;4.30;2.87;;;17.60;99.90;;;;;;5047850;28;20195;-58
2022/06/01 11:25:10;;;;;;;3.23;3.07;;;17.70;99.90;;;;;;5079010;28;20198;-60
2022/06/01 11:28:03;;;;;;;6.10;3.10;;;17.80;99.90;;;;;;5049038;28;20220;-59
2022/06/01 11:30:41;;;;;;;4.23;3.57;;;17.90;99.90;;;;;;5047236;28;20225;-58
2022/06/01 11:33:17;;;;;;;3.40;3.03;;;17.70;99.90;;;;;;5045295;28;20272;-59
2022/06/01 11:35:51;;;;;;;3.80;3.47;;;17.50;99.90;;;;;;5005541;28;1290863;-59
2022/06/01 11:38:25;;;;;;;4.60;4.20;;;17.40;99.90;;;;;;5049449;28;20193;-59
2022/06/01 11:40:58;;;;;;;4.80;4.50;;;17.20;99.90;;;;;;5050104;28;20266;-59
2022/06/01 11:43:31;;;;;;;6.27;3.77;;;17.00;99.90;;;;;;5046675;28;20658;-59
2022/06/01 11:46:03;;;;;;;3.67;3.40;;;16.90;99.90;;;;;;5048483;28;20207;-59
2022/06/01 11:48:35;;;;;;;3.00;2.80;;;16.80;99.90;;;;;;5040126;28;20299;-59
2022/06/01 11:51:12;;;;;;;3.00;2.80;;;16.80;99.90;;;;;;5050280;28;20207;-59
2022/06/01 11:53:56;;;;;;;2.60;2.40;;;16.70;99.90;;;;;;5058654;28;20202;-58
2022/06/01 11:56:34;;;;;;;2.40;2.30;;;16.70;99.90;;;;;;5043467;28;20281;-59
2022/06/01 11:59:15;;;;;;;3.43;2.57;;;16.70;99.90;;;;;;5038949;28;20537;-59
2022/06/01 12:02:03;;;;;;;2.67;2.40;;;16.90;99.90;;;;;;5083508;28;20574;-59
2022/06/01 12:04:51;;;;;;;2.10;2.00;;;16.90;99.90;;;;;;5054364;28;20287;-59
2022/06/01 12:07:25;;;;;;;2.30;1.90;;;17.00;99.90;;;;;;5049662;28;20219;-59
2022/06/01 12:10:03;;;;;;;2.30;2.20;;;17.00;99.90;;;;;;5051540;28;20284;-59
2022/06/01 12:12:47;;;;;;;2.57;2.30;;;17.20;99.90;;;;;;5047778;28;20206;-59
2022/06/01 12:15:20;;;;;;;5.20;2.10;;;17.50;99.90;;;;;;5045650;28;20280;-59
2022/06/01 12:18:07;;;;;;;1.90;1.80;;;17.80;99.90;;;;;;5045915;28;20235;-59
2022/06/01 12:20:52;;;;;;;2.10;1.90;;;18.20;99.90;;;;;;5056403;28;20205;-59
2022/06/01 12:30:12;;;;;;;2.40;2.30;;;19.10;99.90;;;;;;5047064;28;20264;-59
2022/06/01 12:33:20;;;;;;;2.77;1.93;;;19.50;99.90;;;;;;5052935;28;20196;-59
2022/06/01 12:35:55;;;;;;;1.97;1.87;;;19.60;99.90;;;;;;5048823;28;20232;-59
2022/06/01 12:38:31;;;;;;;4.37;2.17;;;19.80;99.90;;;;;;5052727;28;20197;-59
2022/06/01 12:41:06;;;;;;;3.20;3.00;;;19.90;99.90;;;;;;5051157;28;20210;-59
2022/06/01 12:43:40;;;;;;;3.43;2.37;;;19.90;99.90;;;;;;5082200;28;20192;-59
2022/06/01 12:46:21;;;;;;;3.50;3.20;;;20.10;99.90;;;;;;5053192;28;20247;-59
2022/06/01 12:48:49;;;;;;;3.43;3.13;;;20.40;99.90;;;;;;5051744;28;20220;-59
2022/06/01 12:51:20;;;;;;;3.43;3.23;;;20.20;99.90;;;;;;5044527;28;20225;-59
2022/06/01 12:53:53;;;;;;;2.87;2.77;;;20.20;99.90;;;;;;5051842;28;20251;-59
2022/06/01 12:56:27;;;;;;;5.23;3.30;;;20.30;99.90;;;;;;5053744;28;20192;-58
2022/06/01 12:58:58;;;;;;;3.03;2.83;;;20.00;99.90;;;;;;5045659;28;20200;-59
2022/06/01 13:01:32;;;;;;;4.80;2.27;;;19.50;99.90;;;;;;5056558;28;20262;-60
2022/06/01 13:04:01;;;;;;;2.30;2.20;;;19.40;99.90;;;;;;5050848;28;20552;-58
2022/06/01 13:06:34;;;;;;;2.57;2.20;;;19.50;99.90;;;;;;5053633;28;20625;-58
2022/06/01 13:09:08;;;;;;;2.40;2.30;;;19.70;99.90;;;;;;5051146;28;20219;-59
2022/06/01 13:11:38;;;;;;;2.97;1.90;;;20.10;99.90;;;;;;5061985;28;20685;-59
2022/06/01 13:14:27;;;;;;;5.40;2.23;;;20.50;99.90;;;;;;5046803;28;20193;-59
2022/06/01 13:17:00;;;;;;;1.97;1.80;;;20.50;99.90;;;;;;5055626;28;20231;-58
2022/06/01 13:19:32;;;;;;;1.90;1.77;;;21.00;99.90;;;;;;5049023;28;20629;-59
2022/06/01 13:22:08;;;;;;;1.67;1.67;;;21.30;99.90;;;;;;5054292;28;20690;-59
2022/06/01 13:24:43;;;;;;;5.67;1.80;;;21.00;99.90;;;;;;5055567;28;20279;-59
2022/06/01 13:27:12;;;;;;;1.73;1.60;;;20.70;99.90;;;;;;5048692;28;20621;-59
2022/06/01 13:29:44;;;;;;;2.57;1.40;;;20.70;99.90;;;;;;5052468;28;20735;-59
2022/06/01 13:32:15;;;;;;;1.60;1.60;;;20.60;99.90;;;;;;5048629;28;20299;-59
2022/06/01 13:34:47;;;;;;;3.13;1.40;;;20.50;99.90;;;;;;5033670;28;20197;-59
2022/06/01 13:37:21;;;;;;;4.00;1.73;;;20.50;99.90;;;;;;5048953;28;20220;-58
2022/06/01 13:39:54;;;;;;;1.73;1.13;;;20.20;99.90;;;;;;5052866;28;20221;-58
2022/06/01 13:42:34;;;;;;;1.63;1.40;;;20.10;99.90;;;;;;5049132;28;20220;-59
2022/06/01 13:45:18;;;;;;;1.30;1.30;;;20.60;99.90;;;;;;5085513;28;20410;-59
2022/06/01 13:47:56;;;;;;;1.80;1.27;;;20.60;99.90;;;;;;5040151;28;20197;-59